Terminal Aerodrome Forecast
Issued by NWS

Home | Current Version | Previous Version | Text Only | Print | Product List | Glossary On
Versions: 1 2 3 4 5 6 7 8 9 10 11 12 13 14 15 16 17 18 19 20 21
000
FTUS43 KGRB 171015 AAA
TAFATW
TAF AMD
KATW 171015Z 1710/1806 13007KT 5SM BR VCTS BKN005 OVC015CB
      TEMPO 1710/1712 3SM SHRA BR SCT007 BKN015
     FM171600 20011G18KT P6SM SCT015 OVC025 PROB30 1720/1724 3SM
      -TSRA BKN015CB=

USA.gov is the U.S. government's official web portal to all federal, state and local government web resources and services.